createdAt,value
2018-07-28T01:40:54.470Z,0
2018-07-28T02:43:58.318Z,3
2018-07-28T02:44:28.313Z,0
2018-07-28T02:44:59.344Z,3
2018-07-28T02:53:30.977Z,7
2018-07-28T02:57:01.525Z,10
2018-07-28T02:59:01.945Z,13
2018-07-28T03:01:02.246Z,17
2018-07-28T03:02:32.527Z,20
2018-07-28T03:03:32.767Z,23
2018-07-28T03:04:32.866Z,27
2018-07-28T03:05:02.900Z,30
2018-07-28T03:06:03.091Z,33
2018-07-28T03:06:33.270Z,37
2018-07-28T03:07:33.467Z,40
2018-07-28T03:08:03.481Z,43
2018-07-28T03:08:33.639Z,47
2018-07-28T03:09:03.661Z,50
2018-07-28T03:09:33.919Z,53
2018-07-28T03:10:03.826Z,57
2018-07-28T03:10:33.971Z,60
2018-07-28T03:11:04.007Z,63
2018-07-28T03:11:34.209Z,67
2018-07-28T03:12:04.185Z,73
2018-07-28T03:12:34.363Z,77
2018-07-28T03:13:04.379Z,83
2018-07-28T03:13:34.530Z,87
2018-07-28T03:14:04.603Z,93
2018-07-28T03:14:34.845Z,100
2018-07-28T03:15:04.797Z,103
2018-07-28T03:15:34.895Z,110
2018-07-28T03:16:04.968Z,117
2018-07-28T03:16:35.112Z,123
2018-07-28T03:17:05.071Z,130
2018-07-28T03:17:35.234Z,137
2018-07-28T03:18:05.286Z,147
2018-07-28T03:18:35.459Z,153
2018-07-28T03:19:05.436Z,160
2018-07-28T03:19:35.757Z,170
2018-07-28T03:20:05.613Z,180
2018-07-28T03:20:35.794Z,190
2018-07-28T03:21:05.804Z,200
2018-07-28T03:21:35.952Z,210
2018-07-28T03:22:06.066Z,217
2018-07-28T03:22:36.152Z,227
2018-07-28T03:23:06.204Z,240
2018-07-28T03:23:36.372Z,250
2018-07-28T03:24:06.350Z,263
2018-07-28T03:24:36.605Z,277
2018-07-28T03:25:06.582Z,290
2018-07-28T03:25:36.719Z,303
2018-07-28T03:26:06.679Z,317
2018-07-28T03:26:36.838Z,333
2018-07-28T03:27:06.860Z,347
2018-07-28T03:27:37.027Z,363
2018-07-28T03:28:07.079Z,377
2018-07-28T03:28:37.203Z,393
2018-07-28T03:29:07.222Z,410
2018-07-28T03:29:37.538Z,427
2018-07-28T03:30:07.424Z,443
2018-07-28T03:30:37.668Z,460
2018-07-28T03:31:07.581Z,480
2018-07-28T03:31:37.791Z,500
2018-07-28T03:32:07.762Z,520
2018-07-28T03:32:37.906Z,540
2018-07-28T03:33:07.935Z,560
2018-07-28T03:33:38.146Z,583
2018-07-28T03:34:08.172Z,607
2018-07-28T03:34:38.402Z,630
2018-07-28T03:35:08.303Z,647
2018-07-28T03:35:38.492Z,670
2018-07-28T03:36:08.529Z,697
2018-07-28T03:36:38.621Z,720
2018-07-28T03:37:08.680Z,747
2018-07-28T03:37:38.827Z,773
2018-07-28T03:38:08.840Z,800
2018-07-28T03:38:38.986Z,827
2018-07-28T03:39:09.004Z,853
2018-07-28T03:39:39.301Z,880
2018-07-28T03:40:09.261Z,910
2018-07-28T03:40:39.354Z,940
2018-07-28T03:41:09.404Z,970
2018-07-28T03:41:39.538Z,1003
2018-07-28T03:42:09.582Z,1033
2018-07-28T03:42:39.703Z,1067
2018-07-28T03:43:09.739Z,1093
2018-07-28T03:43:39.907Z,1127
2018-07-28T03:44:09.910Z,1160
2018-07-28T03:44:40.195Z,1193
2018-07-28T03:45:10.079Z,1227
2018-07-28T03:45:40.287Z,1260
2018-07-28T03:46:10.301Z,1293
2018-07-28T03:46:40.442Z,1327
2018-07-28T03:47:10.468Z,1363
2018-07-28T03:47:40.671Z,1397
2018-07-28T03:48:10.678Z,1433
2018-07-28T03:48:40.787Z,1470
2018-07-28T03:49:10.895Z,1503
2018-07-28T03:49:41.121Z,1540
2018-07-28T03:50:11.088Z,1577
2018-07-28T03:50:41.178Z,1617
2018-07-28T03:51:11.242Z,1653
2018-07-28T03:51:41.347Z,1693
2018-07-28T03:52:11.417Z,1730
2018-07-28T03:52:41.491Z,1767
2018-07-28T03:53:11.585Z,1807
2018-07-28T03:53:41.668Z,1847
2018-07-28T03:54:11.731Z,1883
2018-07-28T03:54:42.004Z,1920
2018-07-28T03:55:11.891Z,1963
2018-07-28T03:55:42.037Z,2007
2018-07-28T03:56:12.061Z,2050
2018-07-28T03:56:42.212Z,2097
2018-07-28T03:57:12.300Z,2137
2018-07-28T03:57:42.392Z,2183
2018-07-28T03:58:12.459Z,2227
2018-07-28T03:58:42.603Z,2273
2018-07-28T03:59:12.606Z,2317
2018-07-28T03:59:42.857Z,2357
2018-07-28T04:00:12.795Z,2400
2018-07-28T04:00:42.924Z,2450
2018-07-28T04:01:13.024Z,2493
2018-07-28T04:01:43.086Z,2537
2018-07-28T04:02:13.174Z,2580
2018-07-28T04:02:43.265Z,2627
2018-07-28T04:03:13.360Z,2673
2018-07-28T04:03:43.502Z,2723
2018-07-28T04:04:13.537Z,2770
2018-07-28T04:04:43.780Z,2817
2018-07-28T04:05:13.706Z,2867
2018-07-28T04:05:43.896Z,2920
2018-07-28T04:06:13.863Z,2970
2018-07-28T04:06:44.021Z,3013
2018-07-28T04:07:14.054Z,3060
2018-07-28T04:07:44.200Z,3107
2018-07-28T04:08:14.237Z,3150
2018-07-28T04:08:44.408Z,3193
2018-07-28T04:09:14.422Z,3227
2018-07-28T04:09:44.653Z,3267
2018-07-28T04:10:14.554Z,3303
2018-07-28T04:10:44.690Z,3340
2018-07-28T04:11:14.734Z,3377
2018-07-28T04:11:44.883Z,3413
2018-07-28T04:12:14.895Z,3447
2018-07-28T04:12:45.055Z,3487
2018-07-28T04:13:15.091Z,3533
2018-07-28T04:13:45.229Z,3587
2018-07-28T04:14:15.387Z,3637
2018-07-28T04:14:45.732Z,3693
2018-07-28T04:15:15.497Z,3753
2018-07-28T04:15:45.686Z,3820
2018-07-28T04:16:15.657Z,3873
2018-07-28T04:16:45.807Z,3930
2018-07-28T04:17:15.821Z,3983
2018-07-28T04:17:45.968Z,4037
2018-07-28T04:18:16.006Z,4090
2018-07-28T04:18:46.174Z,4153
2018-07-28T04:19:16.177Z,4227
2018-07-28T04:19:46.504Z,4297
2018-07-28T04:20:16.365Z,4373
2018-07-28T04:20:46.580Z,4457
2018-07-28T04:21:16.591Z,4537
2018-07-28T04:21:46.724Z,4627
2018-07-28T04:22:16.745Z,4713
2018-07-28T04:22:46.889Z,4807
2018-07-28T04:23:16.974Z,4907
2018-07-28T04:23:47.132Z,5017
2018-07-28T04:24:17.179Z,5120
2018-07-28T04:24:47.436Z,5230
2018-07-28T04:25:17.333Z,5333
2018-07-28T04:25:47.461Z,5433
2018-07-28T04:26:17.486Z,5537
2018-07-28T04:26:47.636Z,5640
2018-07-28T04:27:17.681Z,5760
2018-07-28T04:27:47.827Z,5883
2018-07-28T04:28:17.850Z,6017
2018-07-28T04:28:48.019Z,6167
2018-07-28T04:29:18.047Z,6330
2018-07-28T04:29:48.321Z,6507
2018-07-28T04:30:18.275Z,6680
2018-07-28T04:30:48.398Z,6863
2018-07-28T04:31:18.469Z,7060
2018-07-28T04:31:48.563Z,7263
2018-07-28T04:32:18.584Z,7470
2018-07-28T04:32:48.726Z,7660
2018-07-28T04:33:18.762Z,7837
2018-07-28T04:33:48.917Z,7993
2018-07-28T04:34:18.943Z,8137
2018-07-28T04:34:49.229Z,8290
2018-07-28T04:35:19.134Z,8450
2018-07-28T04:35:49.395Z,8643
2018-07-28T04:36:19.338Z,8873
2018-07-28T04:36:49.729Z,9107
2018-07-28T04:37:19.551Z,9357
2018-07-28T04:37:49.686Z,9583
2018-07-28T04:38:19.689Z,9817
2018-07-28T04:38:49.845Z,10047
2018-07-28T04:39:19.843Z,10243
2018-07-28T04:39:50.156Z,10420
2018-07-28T04:40:20.035Z,10557
2018-07-28T04:40:50.259Z,10653
2018-07-28T04:41:20.241Z,10727
2018-07-28T04:41:50.446Z,10797
2018-07-28T04:42:20.396Z,10890
2018-07-28T04:42:50.557Z,10983
2018-07-28T04:43:20.569Z,11063
2018-07-28T04:43:50.744Z,11123
2018-07-28T04:44:20.756Z,11210
2018-07-28T04:44:51.074Z,11340
2018-07-28T04:45:20.932Z,11487
2018-07-28T04:45:51.188Z,11590
2018-07-28T04:46:21.111Z,11693
2018-07-28T04:46:51.410Z,11777
2018-07-28T04:47:21.333Z,11943
2018-07-28T04:47:51.606Z,12120
2018-07-28T04:48:21.495Z,12297
2018-07-28T04:48:51.647Z,12453
2018-07-28T04:49:21.634Z,12597
2018-07-28T04:49:51.928Z,12757
2018-07-28T04:50:21.840Z,12930
2018-07-28T04:50:52.027Z,13097
2018-07-28T04:51:21.995Z,13260
2018-07-28T04:51:52.267Z,13420
2018-07-28T04:52:22.185Z,13570
2018-07-28T04:52:52.400Z,13700
2018-07-28T04:53:22.407Z,13820
2018-07-28T04:53:52.542Z,13957
2018-07-28T04:54:22.803Z,14147
2018-07-28T04:54:53.080Z,14393
2018-07-28T04:55:22.921Z,14610
2018-07-28T04:55:53.068Z,14813
2018-07-28T04:56:23.137Z,15007
2018-07-28T04:56:53.238Z,15213
2018-07-28T04:57:23.311Z,15590
2018-07-28T04:57:53.431Z,16047
2018-07-28T04:58:23.505Z,16610
2018-07-28T04:58:53.606Z,17157
2018-07-28T04:59:23.684Z,16727
2018-07-28T04:59:53.900Z,16497
2018-07-28T05:00:23.864Z,16510
2018-07-28T05:00:53.982Z,16647
2018-07-28T05:01:24.028Z,16927
2018-07-28T05:01:54.159Z,16953
2018-07-28T05:02:24.235Z,16937
2018-07-28T05:02:54.332Z,17267
2018-07-28T05:03:24.395Z,17077
2018-07-28T05:03:54.509Z,17957
2018-07-28T05:04:24.553Z,17730
2018-07-28T05:04:55.215Z,17477
2018-07-28T05:05:24.743Z,16970
2018-07-28T05:05:54.877Z,16787
2018-07-28T05:06:24.908Z,16810
2018-07-28T05:06:55.055Z,16573
2018-07-28T05:07:25.211Z,16500
2018-07-28T05:07:55.238Z,16323
2018-07-28T05:08:25.295Z,16297
2018-07-28T05:08:55.506Z,16260
2018-07-28T05:09:25.477Z,16403
2018-07-28T05:09:55.755Z,16480
2018-07-28T05:10:25.627Z,16653
2018-07-28T05:10:55.835Z,16643
2018-07-28T05:11:25.844Z,16730
2018-07-28T05:11:55.984Z,16820
2018-07-28T05:12:26.027Z,16793
2018-07-28T05:12:56.193Z,16737
2018-07-28T05:13:26.195Z,16943
2018-07-28T05:13:56.464Z,17217
2018-07-28T05:14:26.409Z,17393
2018-07-28T05:14:56.514Z,17567
2018-07-28T05:15:26.526Z,17860
2018-07-28T05:15:56.704Z,18380
2018-07-28T05:16:26.727Z,18067
2018-07-28T05:16:56.841Z,18353
2018-07-28T05:17:26.875Z,19400
2018-07-28T05:17:57.016Z,18613
2018-07-28T05:18:27.047Z,19190
2018-07-28T05:18:57.352Z,18787
2018-07-28T05:19:27.238Z,18753
2018-07-28T05:19:57.460Z,18627
2018-07-28T05:20:27.454Z,18353
2018-07-28T05:20:57.605Z,18490
2018-07-28T05:21:27.590Z,18560
2018-07-28T05:21:57.775Z,18653
2018-07-28T05:22:27.782Z,18800
2018-07-28T05:22:57.911Z,18903
2018-07-28T05:23:28.020Z,19333
2018-07-28T05:23:58.342Z,19743
2018-07-28T05:24:28.195Z,19703
2018-07-28T05:24:58.314Z,20097
2018-07-28T05:25:28.288Z,20020
2018-07-28T05:25:58.483Z,20483
2018-07-28T05:26:28.540Z,20733
2018-07-28T05:26:58.681Z,21307
2018-07-28T05:27:28.692Z,22590
2018-07-28T05:27:58.847Z,23570
2018-07-28T05:28:28.917Z,23613
2018-07-28T05:28:59.130Z,24247
2018-07-28T05:29:29.087Z,24543
2018-07-28T05:29:59.214Z,24757
2018-07-28T05:30:29.227Z,28513
2018-07-28T05:30:59.357Z,26820
2018-07-28T05:31:29.347Z,27377
2018-07-28T05:31:59.505Z,24743
2018-07-28T05:32:29.606Z,22587
2018-07-28T05:32:59.697Z,22117
2018-07-28T05:33:29.709Z,21610
2018-07-28T05:34:00.016Z,21040
2018-07-28T05:34:29.893Z,20820
2018-07-28T05:35:00.049Z,20450
2018-07-28T05:35:30.073Z,20330
2018-07-28T05:36:00.916Z,19820
2018-07-28T05:36:30.294Z,19180
2018-07-28T05:37:01.622Z,18633
2018-07-28T05:37:30.491Z,18657
2018-07-28T05:38:01.487Z,18660
2018-07-28T05:38:30.633Z,18927
2018-07-28T05:39:01.711Z,19410
2018-07-28T05:39:30.804Z,20937
2018-07-28T05:40:00.958Z,20630
2018-07-28T05:40:30.993Z,20257
2018-07-28T05:41:01.155Z,22010
2018-07-28T05:41:31.177Z,19150
2018-07-28T05:42:01.344Z,19073
2018-07-28T05:42:31.435Z,19283
2018-07-28T05:43:01.570Z,19113
2018-07-28T05:43:31.628Z,19050
2018-07-28T05:44:02.272Z,18830
2018-07-28T05:44:31.760Z,18887
2018-07-28T05:45:01.873Z,19037
2018-07-28T05:45:31.949Z,19283
2018-07-28T05:46:02.170Z,19623
2018-07-28T05:46:32.147Z,20127
2018-07-28T05:47:02.229Z,20550
2018-07-28T05:47:32.354Z,21080
2018-07-28T05:48:02.446Z,21270
2018-07-28T05:48:32.533Z,21580
2018-07-28T05:49:02.748Z,22003
2018-07-28T05:49:32.638Z,22273
2018-07-28T05:50:02.780Z,22443
2018-07-28T05:50:32.807Z,22583
2018-07-28T05:51:02.948Z,22607
2018-07-28T05:51:32.972Z,22457
2018-07-28T05:52:03.140Z,22383
2018-07-28T05:52:33.160Z,22270
2018-07-28T05:53:03.319Z,21993
2018-07-28T05:53:33.381Z,21767
2018-07-28T05:54:03.764Z,21477
2018-07-28T05:54:33.532Z,21300
2018-07-28T05:55:03.659Z,21147
2018-07-28T05:55:33.777Z,21073
2018-07-28T05:56:03.859Z,21027
2018-07-28T05:56:33.902Z,21003
2018-07-28T05:57:04.081Z,21013
2018-07-28T05:57:34.075Z,21540
2018-07-28T05:58:04.225Z,20930
2018-07-28T05:58:34.253Z,21257
2018-07-28T05:59:04.539Z,21187
2018-07-28T05:59:34.474Z,21437
2018-07-28T06:00:04.571Z,21667
2018-07-28T06:00:34.663Z,21890
2018-07-28T06:01:04.803Z,22113
2018-07-28T06:01:34.808Z,22247
2018-07-28T06:02:05.032Z,22393
2018-07-28T06:02:35.083Z,22310
2018-07-28T06:03:05.210Z,22407
2018-07-28T06:03:35.171Z,22650
2018-07-28T06:04:05.504Z,22533
2018-07-28T06:04:35.374Z,22423
2018-07-28T06:05:05.528Z,22013
2018-07-28T06:05:35.564Z,21437
2018-07-28T06:06:05.712Z,21147
2018-07-28T06:06:35.727Z,21170
2018-07-28T06:07:05.890Z,21230
2018-07-28T06:07:35.883Z,21093
2018-07-28T06:08:06.047Z,20987
2018-07-28T06:08:36.123Z,20757
2018-07-28T06:09:06.722Z,20377
2018-07-28T06:09:36.307Z,19953
2018-07-28T06:10:06.459Z,19500
2018-07-28T06:10:36.496Z,19007
2018-07-28T06:11:06.608Z,18493
2018-07-28T06:11:36.671Z,18157
2018-07-28T06:12:06.753Z,17800
2018-07-28T06:12:36.803Z,17360
2018-07-28T06:13:06.933Z,17010
2018-07-28T06:13:36.971Z,16623
2018-07-28T06:14:07.320Z,16167
2018-07-28T06:14:37.175Z,15880
2018-07-28T06:15:07.414Z,15533
2018-07-28T06:15:37.391Z,15263
2018-07-28T06:16:07.546Z,15050
2018-07-28T06:16:37.597Z,14930
2018-07-28T06:17:07.723Z,14937
2018-07-28T06:17:37.790Z,15190
2018-07-28T06:18:07.909Z,15467
2018-07-28T06:18:37.909Z,15833
2018-07-28T06:19:08.191Z,16267
2018-07-28T06:19:38.150Z,16797
2018-07-28T06:20:08.263Z,17353
2018-07-28T06:20:38.295Z,17813
2018-07-28T06:21:08.430Z,18273
2018-07-28T06:21:38.503Z,18477
2018-07-28T06:22:08.600Z,18933
2018-07-28T06:22:38.678Z,19117
2018-07-28T06:23:08.765Z,19157
2018-07-28T06:23:38.812Z,19320
2018-07-28T06:24:09.117Z,19467
2018-07-28T06:24:38.979Z,19480
2018-07-28T06:25:09.144Z,19350
2018-07-28T06:25:39.296Z,19313
2018-07-28T06:26:09.395Z,19210
2018-07-28T06:26:39.414Z,18457
2018-07-28T06:27:09.579Z,18727
2018-07-28T06:27:39.564Z,18027
2018-07-28T06:28:09.670Z,17423
2018-07-28T06:28:39.727Z,16830
2018-07-28T06:29:10.101Z,16557
2018-07-28T06:29:39.889Z,16367
2018-07-28T06:30:10.036Z,16233
2018-07-28T06:30:40.119Z,16453
2018-07-28T06:31:10.270Z,16297
2018-07-28T06:31:40.345Z,15977
2018-07-28T06:32:10.477Z,15677
2018-07-28T06:32:40.518Z,15213
2018-07-28T06:33:10.614Z,15003
2018-07-28T06:33:40.699Z,15290
2018-07-28T06:34:11.014Z,15030
2018-07-28T06:34:40.829Z,15047
2018-07-28T06:35:11.040Z,15177
2018-07-28T06:35:41.040Z,15103
2018-07-28T06:36:11.201Z,15320
2018-07-28T06:36:41.236Z,15257
2018-07-28T06:37:11.357Z,15267
2018-07-28T06:37:41.440Z,15590
2018-07-28T06:38:11.519Z,16080
2018-07-28T06:38:41.602Z,16400
2018-07-28T06:39:11.836Z,16767
2018-07-28T06:39:41.746Z,17300
2018-07-28T06:40:11.858Z,17867
2018-07-28T06:40:41.888Z,18780
2018-07-28T06:41:12.098Z,19057
2018-07-28T06:41:42.066Z,19863
2018-07-28T06:42:12.231Z,20233
2018-07-28T06:42:42.308Z,24983
2018-07-28T06:43:12.444Z,20997
2018-07-28T06:43:42.478Z,22277
2018-07-28T06:44:12.704Z,23930
2018-07-28T06:44:42.696Z,26007
2018-07-28T06:45:12.769Z,28930
2018-07-28T06:45:42.805Z,29107
2018-07-28T06:46:12.948Z,25490
2018-07-28T06:46:42.978Z,23107
2018-07-28T06:47:13.136Z,22867
2018-07-28T06:47:43.226Z,22810
2018-07-28T06:48:13.351Z,23023
2018-07-28T06:48:43.351Z,25077
2018-07-28T06:49:13.669Z,24233
2018-07-28T06:49:43.556Z,23680
2018-07-28T06:50:13.716Z,23583
2018-07-28T06:50:44.679Z,23823
2018-07-28T06:51:14.752Z,23500
2018-07-28T06:51:44.731Z,23403
2018-07-28T06:52:14.772Z,22783
2018-07-28T06:52:45.959Z,22080
2018-07-28T06:53:15.059Z,20260
2018-07-28T06:53:45.238Z,22403
2018-07-28T06:54:15.221Z,19723
2018-07-28T06:54:45.196Z,19820
2018-07-28T06:55:15.181Z,18690
2018-07-28T06:55:45.217Z,18290
2018-07-28T06:56:15.212Z,19500
2018-07-28T06:56:45.297Z,18783
2018-07-28T06:57:15.339Z,19637
2018-07-28T06:57:45.365Z,21507
2018-07-28T06:58:15.331Z,25857
2018-07-28T06:58:45.423Z,25583
2018-07-28T06:59:15.531Z,22020
2018-07-28T06:59:45.502Z,23007
2018-07-28T07:00:15.703Z,23230
2018-07-28T07:00:45.554Z,23947
2018-07-28T07:01:15.533Z,24323
2018-07-28T07:01:45.640Z,24130
2018-07-28T07:02:15.588Z,23947
2018-07-28T07:02:45.680Z,24323
2018-07-28T07:03:15.684Z,25067
2018-07-28T07:03:45.707Z,25853
2018-07-28T07:04:15.728Z,26260
2018-07-28T07:04:45.796Z,26507
2018-07-28T07:05:15.767Z,26100
2018-07-28T07:05:45.842Z,26273
2018-07-28T07:06:15.831Z,26147
2018-07-28T07:06:45.917Z,25867
2018-07-28T07:07:15.893Z,26317
2018-07-28T07:07:45.979Z,26483
2018-07-28T07:08:15.953Z,26273
2018-07-28T07:08:46.016Z,25493
2018-07-28T07:09:16.017Z,25190
2018-07-28T07:09:46.108Z,24320
2018-07-28T07:10:16.078Z,23650
2018-07-28T07:10:46.174Z,23360
2018-07-28T07:11:16.133Z,22660
2018-07-28T07:11:46.235Z,23250
2018-07-28T07:12:16.240Z,23117
2018-07-28T07:12:46.288Z,23807
2018-07-28T07:13:16.317Z,25003
2018-07-28T07:13:46.338Z,24203
2018-07-28T07:14:16.357Z,23980
2018-07-28T07:14:46.411Z,23793
2018-07-28T07:15:16.413Z,23470
2018-07-28T07:15:46.476Z,22933
2018-07-28T07:16:16.488Z,22750
2018-07-28T07:16:46.617Z,22863
2018-07-28T07:17:16.517Z,22907
2018-07-28T07:17:46.617Z,22790
2018-07-28T07:18:16.626Z,22473
2018-07-28T07:18:46.673Z,21857
2018-07-28T07:19:16.690Z,21593
2018-07-28T07:19:46.806Z,21777
2018-07-28T07:20:16.780Z,21840
2018-07-28T07:20:47.765Z,21657
2018-07-28T07:21:16.788Z,21470
2018-07-28T07:21:46.881Z,21240
2018-07-28T07:22:16.843Z,20947
2018-07-28T07:22:46.911Z,21140
2018-07-28T07:23:16.917Z,21653
2018-07-28T07:23:46.969Z,22557
2018-07-28T07:24:16.997Z,23747
2018-07-28T07:24:47.092Z,24773
2018-07-28T07:25:17.049Z,26403
2018-07-28T07:25:47.253Z,27093
2018-07-28T07:26:17.092Z,27587
2018-07-28T07:26:47.129Z,27433
2018-07-28T07:27:17.212Z,27633
2018-07-28T07:27:47.222Z,27320
2018-07-28T07:28:17.228Z,27537
2018-07-28T07:28:47.312Z,27467
2018-07-28T07:29:17.283Z,27747
2018-07-28T07:29:47.337Z,27963
2018-07-28T07:30:17.394Z,27850
2018-07-28T07:30:47.519Z,27973
2018-07-28T07:31:17.410Z,28197
2018-07-28T07:31:47.471Z,28253
2018-07-28T07:32:17.469Z,28383
2018-07-28T07:32:47.519Z,28527
2018-07-28T07:33:17.509Z,28617
2018-07-28T07:33:47.612Z,28740
2018-07-28T07:34:17.589Z,29017
2018-07-28T07:34:47.625Z,28347
2018-07-28T07:35:17.627Z,28150
2018-07-28T07:35:47.853Z,27653
2018-07-28T07:36:17.779Z,27497
2018-07-28T07:36:47.790Z,27300
2018-07-28T07:37:17.764Z,27140
2018-07-28T07:37:47.834Z,26893
2018-07-28T07:38:17.906Z,26790
2018-07-28T07:38:47.873Z,26693
2018-07-28T07:39:17.925Z,26757
2018-07-28T07:39:47.948Z,27703
2018-07-28T07:40:17.937Z,26890
2018-07-28T07:40:48.220Z,27187
2018-07-28T07:41:18.029Z,27100
2018-07-28T07:41:48.125Z,28740
2018-07-28T07:42:18.070Z,29077
2018-07-28T07:42:48.122Z,28557
2018-07-28T07:43:18.158Z,28790
2018-07-28T07:43:48.213Z,27690
2018-07-28T07:44:18.188Z,27433
2018-07-28T07:44:48.297Z,27740
2018-07-28T07:45:18.329Z,27973
2018-07-28T07:45:48.340Z,27890
2018-07-28T07:46:18.335Z,28713
2018-07-28T07:46:48.536Z,28177
2018-07-28T07:47:18.448Z,28080
2018-07-28T07:47:48.477Z,27560
2018-07-28T07:48:18.512Z,27333
2018-07-28T07:48:48.567Z,25950
2018-07-28T07:49:18.542Z,25127
2018-07-28T07:49:48.562Z,24350
2018-07-28T07:50:18.569Z,23903
2018-07-28T07:50:48.675Z,23470
2018-07-28T07:51:18.618Z,23257
2018-07-28T07:51:48.711Z,22910
2018-07-28T07:52:18.742Z,22737
2018-07-28T07:52:48.741Z,23127
2018-07-28T07:53:18.761Z,23197
2018-07-28T07:53:48.819Z,23933
2018-07-28T07:54:18.814Z,22457
2018-07-28T07:54:48.861Z,23347
2018-07-28T07:55:18.869Z,24703
2018-07-28T07:55:48.926Z,26910
2018-07-28T07:56:19.048Z,28090
2018-07-28T07:56:48.987Z,30503
2018-07-28T07:57:18.992Z,32577
2018-07-28T07:57:49.048Z,30537
2018-07-28T07:58:19.047Z,29213
2018-07-28T07:58:49.143Z,31853
2018-07-28T07:59:19.106Z,33530
2018-07-28T07:59:49.227Z,25777
2018-07-28T08:00:19.216Z,25047
2018-07-28T08:00:49.261Z,24330
2018-07-28T08:01:19.397Z,24960
2018-07-28T08:01:49.309Z,33280
2018-07-28T08:02:19.318Z,27520
2018-07-28T08:02:49.407Z,40563
2018-07-28T08:03:19.388Z,46363
2018-07-28T08:03:49.451Z,53750
2018-07-28T08:04:19.446Z,36470
2018-07-28T08:04:49.602Z,41463
2018-07-28T08:05:19.547Z,52470
2018-07-28T08:05:49.560Z,53973
2018-07-28T08:06:19.786Z,24637
2018-07-28T08:06:49.639Z,56590
2018-07-28T08:07:19.643Z,23080
2018-07-28T08:07:49.699Z,21593
2018-07-28T08:08:19.712Z,24320
2018-07-28T08:08:49.774Z,50773
2018-07-28T08:09:19.755Z,22450
2018-07-28T08:09:49.874Z,45263
2018-07-28T08:10:19.839Z,23687
2018-07-28T08:10:49.929Z,36687
2018-07-28T08:11:19.971Z,23503
2018-07-28T08:11:50.188Z,24207
2018-07-28T08:12:20.209Z,27553
2018-07-28T08:12:50.222Z,30707
2018-07-28T08:13:20.320Z,33820
2018-07-28T08:13:50.334Z,25080
2018-07-28T08:14:20.304Z,26670
2018-07-28T08:14:50.375Z,33163
2018-07-28T08:15:20.343Z,66500
2018-07-28T08:15:50.434Z,35037
2018-07-28T08:16:20.576Z,26257
2018-07-28T08:16:50.467Z,25197
2018-07-28T08:17:20.502Z,25910
2018-07-28T08:17:50.558Z,26217
2018-07-28T08:18:20.538Z,31253
2018-07-28T08:18:50.626Z,29063
2018-07-28T08:19:20.594Z,31383
2018-07-28T08:19:50.664Z,31267
2018-07-28T08:20:20.652Z,29563
2018-07-28T08:20:50.771Z,25970
2018-07-28T08:21:20.847Z,33757
2018-07-28T08:21:50.817Z,27760
2018-07-28T08:22:20.770Z,35337
2018-07-28T08:22:50.859Z,37910
2018-07-28T08:23:20.860Z,34290
2018-07-28T08:23:50.896Z,24670
2018-07-28T08:24:20.945Z,28580
2018-07-28T08:24:51.025Z,30657
2018-07-28T08:25:20.971Z,26267
2018-07-28T08:25:51.023Z,36710
2018-07-28T08:26:21.313Z,25863
2018-07-28T08:26:51.235Z,49920
2018-07-28T08:27:21.142Z,53880
2018-07-28T08:27:51.179Z,49093
2018-07-28T08:28:21.148Z,63253
2018-07-28T08:28:51.288Z,64233
2018-07-28T08:29:21.212Z,61373
2018-07-28T08:29:51.347Z,60083
2018-07-28T08:30:21.266Z,57157
2018-07-28T08:30:51.387Z,47037
2018-07-28T08:31:21.586Z,44733
2018-07-28T08:31:51.398Z,89817
2018-07-28T08:32:21.440Z,83770
2018-07-28T08:32:51.465Z,45563
2018-07-28T08:33:21.516Z,48597
2018-07-28T08:33:51.545Z,45110
2018-07-28T08:34:21.540Z,46127
2018-07-28T08:34:51.573Z,81783
2018-07-28T08:35:21.598Z,62997
2018-07-28T08:35:51.669Z,55450
2018-07-28T08:36:21.881Z,55120
2018-07-28T08:36:51.737Z,44657
2018-07-28T08:37:21.692Z,51933
2018-07-28T08:37:51.856Z,85420
2018-07-28T08:38:21.776Z,57313
2018-07-28T08:38:51.873Z,47373
2018-07-28T08:39:21.819Z,39417
2018-07-28T08:39:51.899Z,90553
2018-07-28T08:40:21.920Z,85117
2018-07-28T08:40:51.950Z,88973
2018-07-28T08:41:22.077Z,96963
2018-07-28T08:41:52.005Z,96933
2018-07-28T08:42:22.024Z,95493
2018-07-28T08:42:52.077Z,95887
2018-07-28T08:43:22.094Z,95063
2018-07-28T08:43:52.161Z,97677
2018-07-28T08:44:22.171Z,97330
2018-07-28T08:44:52.194Z,93107
2018-07-28T08:45:22.237Z,96393
2018-07-28T08:45:52.269Z,92267
2018-07-28T08:46:22.776Z,73930
2018-07-28T08:46:52.366Z,93403
2018-07-28T08:47:22.327Z,82443
2018-07-28T08:47:52.438Z,75877
2018-07-28T08:48:22.459Z,70340
2018-07-28T08:48:52.529Z,59803
2018-07-28T08:49:22.609Z,98567
2018-07-28T08:49:52.542Z,86030
2018-07-28T08:50:22.580Z,63923
2018-07-28T08:50:52.601Z,74400
2018-07-28T08:51:22.692Z,36107
2018-07-28T08:51:52.685Z,51413
2018-07-28T08:52:22.674Z,82923
2018-07-28T08:52:52.768Z,75747
2018-07-28T08:53:22.729Z,92833
2018-07-28T08:53:52.846Z,41353
2018-07-28T08:54:22.888Z,99487
2018-07-28T08:54:52.833Z,79160
2018-07-28T08:55:22.819Z,46693
2018-07-28T08:55:52.901Z,98097
2018-07-28T08:56:23.051Z,97660
2018-07-28T08:56:52.969Z,97047
2018-07-28T08:57:22.960Z,90457
2018-07-28T08:57:53.032Z,92577
2018-07-28T08:58:23.012Z,60423
2018-07-28T08:58:53.093Z,100200
2018-07-28T08:59:23.085Z,100447
2018-07-28T08:59:53.174Z,100677
2018-07-28T09:00:23.221Z,91463
2018-07-28T09:00:53.206Z,89717
2018-07-28T09:01:23.765Z,85217
2018-07-28T09:01:53.310Z,83740
2018-07-28T09:02:23.307Z,73290
2018-07-28T09:02:53.367Z,83407
2018-07-28T09:03:23.397Z,88747
2018-07-28T09:03:53.557Z,102957
2018-07-28T09:04:23.466Z,103053
2018-07-28T09:04:53.458Z,101477
2018-07-28T09:05:23.512Z,103047
2018-07-28T09:05:53.534Z,103213
2018-07-28T09:06:23.611Z,103397
2018-07-28T09:06:53.579Z,103700
2018-07-28T09:07:23.555Z,103890
2018-07-28T09:07:53.629Z,104050
2018-07-28T09:08:23.676Z,103960
2018-07-28T09:08:53.679Z,103670
2018-07-28T09:09:23.674Z,103467
2018-07-28T09:09:53.844Z,103687
2018-07-28T09:10:23.759Z,103817
2018-07-28T09:10:53.804Z,104233
2018-07-28T09:11:23.919Z,104417
2018-07-28T09:11:53.869Z,104327
2018-07-28T09:12:23.957Z,104833
2018-07-28T09:12:53.930Z,105050
2018-07-28T09:13:23.937Z,105783
2018-07-28T09:13:53.992Z,106033
2018-07-28T09:14:23.982Z,106430
2018-07-28T09:14:54.054Z,106370
2018-07-28T09:15:24.060Z,105900
2018-07-28T09:15:54.102Z,105973
2018-07-28T09:16:24.342Z,106510
2018-07-28T09:16:54.198Z,107300
2018-07-28T09:17:24.209Z,107457
2018-07-28T09:17:54.296Z,107810
2018-07-28T09:18:24.241Z,107560
2018-07-28T09:18:54.298Z,107450
2018-07-28T09:19:24.346Z,107250
2018-07-28T09:19:54.456Z,106737
2018-07-28T09:20:24.369Z,106393
2018-07-28T09:20:54.440Z,105960
2018-07-28T09:21:24.594Z,106293
2018-07-28T09:21:54.520Z,106813
2018-07-28T09:22:24.532Z,106937
2018-07-28T09:22:54.546Z,106950
2018-07-28T09:23:24.680Z,107217
2018-07-28T09:23:54.621Z,107163
2018-07-28T09:24:24.620Z,107077
2018-07-28T09:24:54.667Z,107613
2018-07-28T09:25:24.680Z,107813
2018-07-28T09:25:54.775Z,108083
2018-07-28T09:26:24.719Z,108167
2018-07-28T09:26:54.931Z,108160
2018-07-28T09:27:24.786Z,108127
2018-07-28T09:27:54.865Z,109170
2018-07-28T09:28:24.865Z,109213
2018-07-28T09:28:54.971Z,109283
2018-07-28T09:29:24.912Z,109800
2018-07-28T09:29:54.990Z,110667
2018-07-28T09:30:24.977Z,111520
2018-07-28T09:30:55.037Z,112123
2018-07-28T09:31:25.058Z,112630